createdAt,value
2023-01-18T00:00:52.618Z,36.26
2023-01-18T00:06:15.062Z,36.59
2023-01-18T00:11:36.745Z,36.22
2023-01-18T00:16:58.436Z,36.57
2023-01-18T00:22:20.103Z,36.64
2023-01-18T00:27:46.571Z,36.31
2023-01-18T00:33:09.596Z,36.65
2023-01-18T00:38:31.813Z,36.67
2023-01-18T00:43:53.928Z,36.53
2023-01-18T00:49:15.586Z,36.49
2023-01-18T00:54:37.625Z,36.76
2023-01-18T00:59:59.410Z,36.40
2023-01-18T01:05:42.427Z,36.58
2023-01-18T01:11:12.186Z,36.73
2023-01-18T01:16:52.831Z,36.71
2023-01-18T01:22:33.396Z,36.42
2023-01-18T01:27:55.074Z,36.57
2023-01-18T01:33:18.525Z,36.20
2023-01-18T01:38:43.177Z,36.88
2023-01-18T01:44:20.232Z,36.73
2023-01-18T01:49:49.347Z,36.80
2023-01-18T01:55:23.935Z,36.53
2023-01-18T02:00:45.825Z,36.85
2023-01-18T02:06:31.635Z,36.70
2023-01-18T02:11:55.397Z,36.72
2023-01-18T02:17:44.661Z,36.38
2023-01-18T02:23:25.343Z,36.71
2023-01-18T02:29:06.050Z,36.41
2023-01-18T02:34:44.026Z,36.36
2023-01-18T02:40:27.447Z,36.70
2023-01-18T02:46:09.111Z,36.48
2023-01-18T02:51:30.780Z,36.71
2023-01-18T02:56:55.523Z,36.37
2023-01-18T03:02:21.003Z,36.54
2023-01-18T03:07:50.936Z,36.21
2023-01-18T03:13:25.748Z,36.38
2023-01-18T03:19:31.085Z,36.71
2023-01-18T03:24:52.884Z,36.64
2023-01-18T03:30:33.512Z,36.89
2023-01-18T03:35:56.619Z,36.44
2023-01-18T03:41:20.614Z,36.89
2023-01-18T03:46:43.971Z,36.68
2023-01-18T03:52:26.141Z,36.21
2023-01-18T03:57:47.892Z,36.87
2023-01-18T04:03:09.746Z,36.46
2023-01-18T04:08:31.514Z,36.41
2023-01-18T04:13:54.494Z,36.53
2023-01-18T04:19:17.394Z,36.62
2023-01-18T04:24:39.110Z,36.64
2023-01-18T04:30:00.942Z,36.80
2023-01-18T04:35:22.751Z,36.54
2023-01-18T04:40:44.532Z,36.60
2023-01-18T04:46:06.237Z,36.35
2023-01-18T04:51:28.113Z,36.45
2023-01-18T04:56:49.983Z,36.65
2023-01-18T05:02:12.449Z,36.75
2023-01-18T05:07:34.367Z,36.82
2023-01-18T05:12:56.601Z,36.47
2023-01-18T05:18:18.586Z,36.80
2023-01-18T05:23:40.711Z,36.79
2023-01-18T05:29:02.363Z,36.57
2023-01-18T05:34:24.081Z,36.82
2023-01-18T05:39:45.904Z,36.46
2023-01-18T05:45:08.285Z,36.40
2023-01-18T05:50:30.194Z,36.70
2023-01-18T05:55:57.567Z,36.77
2023-01-18T06:01:19.611Z,36.72
2023-01-18T06:06:41.389Z,36.81
2023-01-18T06:12:03.671Z,36.13
2023-01-18T06:17:25.614Z,36.09
2023-01-18T06:22:47.496Z,35.55
2023-01-18T06:28:09.228Z,34.90
2023-01-18T06:33:30.935Z,34.14
2023-01-18T06:38:53.180Z,33.52
2023-01-18T06:44:15.031Z,32.85
2023-01-18T06:49:36.987Z,32.80
2023-01-18T06:54:58.826Z,33.03
2023-01-18T07:00:20.990Z,33.13
2023-01-18T07:05:42.660Z,33.07
2023-01-18T07:11:07.065Z,33.44
2023-01-18T07:16:30.326Z,33.57
2023-01-18T07:21:53.877Z,33.87
2023-01-18T07:27:15.573Z,33.59
2023-01-18T07:32:37.342Z,34.29
2023-01-18T07:37:59.496Z,34.27
2023-01-18T07:43:21.158Z,33.84
2023-01-18T07:48:43.394Z,33.56
2023-01-18T07:54:05.175Z,33.11
2023-01-18T07:59:28.021Z,32.93
2023-01-18T08:04:50.348Z,32.46
2023-01-18T08:10:12.139Z,32.29
2023-01-18T08:15:33.907Z,32.03
2023-01-18T08:20:55.712Z,31.88
2023-01-18T08:26:17.521Z,31.85
2023-01-18T08:31:39.289Z,32.19
2023-01-18T08:37:00.973Z,32.37
2023-01-18T08:42:22.674Z,32.44
2023-01-18T08:47:44.652Z,32.45
2023-01-18T08:53:06.388Z,32.75
2023-01-18T08:58:31.680Z,32.88
2023-01-18T09:03:55.321Z,33.34
2023-01-18T09:09:17.119Z,33.54
2023-01-18T09:14:38.833Z,33.72
2023-01-18T09:20:00.576Z,33.60
2023-01-18T09:25:22.265Z,33.61
2023-01-18T09:30:44.026Z,33.68
2023-01-18T09:36:10.066Z,33.80
2023-01-18T09:41:34.501Z,33.63
2023-01-18T09:47:07.123Z,33.46
2023-01-18T09:53:01.376Z,33.65
2023-01-18T09:58:54.750Z,33.13
2023-01-18T10:04:19.331Z,32.84
2023-01-18T10:09:44.897Z,32.87
2023-01-18T10:15:10.761Z,32.83
2023-01-18T10:20:32.824Z,32.44
2023-01-18T10:26:01.741Z,32.69
2023-01-18T10:31:41.970Z,32.33
2023-01-18T10:37:15.262Z,32.41
2023-01-18T10:42:51.937Z,31.97
2023-01-18T10:48:32.433Z,32.36
2023-01-18T10:53:54.200Z,32.43
2023-01-18T10:59:26.517Z,32.54
2023-01-18T11:04:56.958Z,32.59
2023-01-18T11:10:27.533Z,32.53
2023-01-18T11:16:03.041Z,33.18
2023-01-18T11:21:26.480Z,33.21
2023-01-18T11:27:03.899Z,33.52
2023-01-18T11:32:31.000Z,33.34
2023-01-18T11:37:59.121Z,33.40
2023-01-18T11:43:25.521Z,33.87
2023-01-18T11:49:04.825Z,33.61
2023-01-18T11:54:29.172Z,33.83
2023-01-18T11:59:50.929Z,33.99
2023-01-18T12:05:15.436Z,33.85
2023-01-18T12:11:07.067Z,33.47
2023-01-18T12:16:44.375Z,33.48
2023-01-18T12:22:24.618Z,32.88
2023-01-18T12:28:20.176Z,32.89
2023-01-18T12:33:47.283Z,32.78
2023-01-18T12:39:37.648Z,32.10
2023-01-18T12:45:17.631Z,31.75
2023-01-18T12:50:40.431Z,32.19
2023-01-18T12:56:20.859Z,31.95
2023-01-18T13:01:52.183Z,31.48
2023-01-18T13:07:20.176Z,31.96
2023-01-18T13:12:42.475Z,31.90
2023-01-18T13:18:13.961Z,31.54
2023-01-18T13:24:16.412Z,31.96
2023-01-18T13:29:39.279Z,31.95
2023-01-18T13:35:21.298Z,32.29
2023-01-18T13:40:54.414Z,32.56
2023-01-18T13:46:23.763Z,32.77
2023-01-18T13:51:49.727Z,32.99
2023-01-18T13:57:17.054Z,33.00
2023-01-18T14:02:45.540Z,32.93
2023-01-18T14:08:07.393Z,32.90
2023-01-18T14:13:55.231Z,33.46
2023-01-18T14:19:20.184Z,33.36
2023-01-18T14:25:20.216Z,33.22
2023-01-18T14:30:45.658Z,33.55
2023-01-18T14:36:08.725Z,33.10
2023-01-18T14:41:31.497Z,33.01
2023-01-18T14:46:56.531Z,33.06
2023-01-18T14:52:19.142Z,33.12
2023-01-18T14:57:40.867Z,33.42
2023-01-18T15:03:03.111Z,32.93
2023-01-18T15:08:28.077Z,33.08
2023-01-18T15:13:52.860Z,33.04
2023-01-18T15:19:20.277Z,32.50
2023-01-18T15:24:44.384Z,32.74
2023-01-18T15:30:13.058Z,32.14
2023-01-18T15:35:34.950Z,31.28
2023-01-18T15:41:05.032Z,30.91
2023-01-18T15:46:29.136Z,30.71
2023-01-18T15:51:56.570Z,30.80
2023-01-18T15:57:20.552Z,31.07
2023-01-18T16:02:43.348Z,31.08
2023-01-18T16:08:21.407Z,30.74
2023-01-18T16:13:43.618Z,31.42
2023-01-18T16:19:29.084Z,31.07
2023-01-18T16:24:51.089Z,30.82
2023-01-18T16:30:20.216Z,30.90
2023-01-18T16:35:42.295Z,31.21
2023-01-18T16:41:04.085Z,31.40
2023-01-18T16:46:26.582Z,31.49
2023-01-18T16:51:50.014Z,31.82
2023-01-18T16:57:22.261Z,32.15
2023-01-18T17:02:44.406Z,32.18
2023-01-18T17:08:06.173Z,32.26
2023-01-18T17:13:27.851Z,32.47
2023-01-18T17:18:50.038Z,32.33
2023-01-18T17:24:11.819Z,32.48
2023-01-18T17:29:33.566Z,32.60
2023-01-18T17:34:55.265Z,32.60
2023-01-18T17:40:27.177Z,32.45
2023-01-18T17:46:01.232Z,31.85
2023-01-18T17:51:23.546Z,31.66
2023-01-18T17:56:45.568Z,31.07
2023-01-18T18:02:09.932Z,31.29
2023-01-18T18:07:31.708Z,31.35
2023-01-18T18:12:53.657Z,31.03
2023-01-18T18:18:23.097Z,31.36
2023-01-18T18:23:46.263Z,31.36
2023-01-18T18:29:08.110Z,32.08
2023-01-18T18:34:30.267Z,31.99
2023-01-18T18:39:52.013Z,32.37
2023-01-18T18:45:14.068Z,31.93
2023-01-18T18:50:35.766Z,32.35
2023-01-18T18:56:00.403Z,32.09
2023-01-18T19:01:24.613Z,31.54
2023-01-18T19:06:46.431Z,31.84
2023-01-18T19:12:08.836Z,31.54
2023-01-18T19:17:31.620Z,31.55
2023-01-18T19:22:53.600Z,31.59
2023-01-18T19:28:16.288Z,31.40
2023-01-18T19:33:38.094Z,31.64
2023-01-18T19:39:02.308Z,31.31
2023-01-18T19:44:25.063Z,31.52
2023-01-18T19:49:46.824Z,31.68
2023-01-18T19:55:08.979Z,31.73
2023-01-18T20:00:30.735Z,31.82
2023-01-18T20:05:52.467Z,32.00
2023-01-18T20:11:15.619Z,32.84
2023-01-18T20:16:37.513Z,33.22
2023-01-18T20:21:59.291Z,33.88
2023-01-18T20:27:20.983Z,33.79
2023-01-18T20:32:42.790Z,34.41
2023-01-18T20:38:04.526Z,34.29
2023-01-18T20:43:26.286Z,34.40
2023-01-18T20:48:48.011Z,34.38
2023-01-18T20:54:09.756Z,35.03
2023-01-18T20:59:31.584Z,35.24
2023-01-18T21:04:53.437Z,35.46
2023-01-18T21:10:15.337Z,35.74
2023-01-18T21:15:39.258Z,36.02
2023-01-18T21:21:01.327Z,36.43
2023-01-18T21:26:23.283Z,36.42
2023-01-18T21:31:45.661Z,36.50
2023-01-18T21:37:07.390Z,36.85
2023-01-18T21:42:47.985Z,36.74
2023-01-18T21:48:09.702Z,36.55
2023-01-18T21:53:50.260Z,36.27
2023-01-18T21:59:13.541Z,36.62
2023-01-18T22:04:54.180Z,36.87
2023-01-18T22:10:16.277Z,36.46
2023-01-18T22:15:38.094Z,36.85
2023-01-18T22:20:59.773Z,36.91
2023-01-18T22:26:23.533Z,36.82
2023-01-18T22:31:45.221Z,37.17
2023-01-18T22:37:06.951Z,37.13
2023-01-18T22:42:28.690Z,37.19
2023-01-18T22:47:50.592Z,37.27
2023-01-18T22:53:12.294Z,37.37
2023-01-18T22:58:35.869Z,37.53
2023-01-18T23:03:59.745Z,37.61
2023-01-18T23:09:21.725Z,37.59
2023-01-18T23:15:01.761Z,37.55
2023-01-18T23:20:26.830Z,37.46
2023-01-18T23:25:54.471Z,37.69
2023-01-18T23:31:17.985Z,37.20
2023-01-18T23:36:39.757Z,37.19
2023-01-18T23:42:20.139Z,37.42
2023-01-18T23:48:00.520Z,37.34
2023-01-18T23:53:40.835Z,37.20
2023-01-18T23:59:02.844Z,37.21
